sensor_id;sensor_type;location;lat;lon;timestamp;temperature;humidity
35804;DHT22;21924;51.934;7.414;2022-09-23T00:00:34;10.10;99.90
35804;DHT22;21924;51.934;7.414;2022-09-23T00:03:18;10.00;99.90
35804;DHT22;21924;51.934;7.414;2022-09-23T00:06:04;10.00;99.90
35804;DHT22;21924;51.934;7.414;2022-09-23T00:08:49;9.90;99.90
35804;DHT22;21924;51.934;7.414;2022-09-23T00:11:34;10.00;99.90
35804;DHT22;21924;51.934;7.414;2022-09-23T00:14:18;9.90;99.90
35804;DHT22;21924;51.934;7.414;2022-09-23T00:17:02;10.00;99.90
35804;DHT22;21924;51.934;7.414;2022-09-23T00:19:46;10.00;99.90
35804;DHT22;21924;51.934;7.414;2022-09-23T00:22:31;10.00;99.90
35804;DHT22;21924;51.934;7.414;2022-09-23T00:25:16;10.00;99.90
35804;DHT22;21924;51.934;7.414;2022-09-23T00:28:00;10.00;99.90
35804;DHT22;21924;51.934;7.414;2022-09-23T00:30:44;10.20;99.90
35804;DHT22;21924;51.934;7.414;2022-09-23T00:33:29;10.10;99.90
35804;DHT22;21924;51.934;7.414;2022-09-23T00:36:14;10.10;99.90
35804;DHT22;21924;51.934;7.414;2022-09-23T00:38:58;10.00;99.90
35804;DHT22;21924;51.934;7.414;2022-09-23T00:41:43;10.00;99.90
35804;DHT22;21924;51.934;7.414;2022-09-23T00:52:58;10.10;99.90
35804;DHT22;21924;51.934;7.414;2022-09-23T00:55:48;10.20;99.90
35804;DHT22;21924;51.934;7.414;2022-09-23T00:58:33;10.20;99.90
35804;DHT22;21924;51.934;7.414;2022-09-23T01:01:18;10.20;99.90
35804;DHT22;21924;51.934;7.414;2022-09-23T01:04:03;10.20;99.90
35804;DHT22;21924;51.934;7.414;2022-09-23T01:06:48;10.20;99.90
35804;DHT22;21924;51.934;7.414;2022-09-23T01:09:32;10.30;99.90
35804;DHT22;21924;51.934;7.414;2022-09-23T01:15:14;10.20;99.90
35804;DHT22;21924;51.934;7.414;2022-09-23T01:18:04;10.20;99.90
35804;DHT22;21924;51.934;7.414;2022-09-23T01:26:47;10.20;99.90
35804;DHT22;21924;51.934;7.414;2022-09-23T01:35:29;10.10;99.90
35804;DHT22;21924;51.934;7.414;2022-09-23T01:38:34;10.10;99.90
35804;DHT22;21924;51.934;7.414;2022-09-23T01:44:07;10.10;99.90
35804;DHT22;21924;51.934;7.414;2022-09-23T01:46:53;10.00;99.90
35804;DHT22;21924;51.934;7.414;2022-09-23T01:49:45;10.10;99.90
35804;DHT22;21924;51.934;7.414;2022-09-23T01:52:37;10.00;99.90
35804;DHT22;21924;51.934;7.414;2022-09-23T01:55:26;9.90;99.90
35804;DHT22;21924;51.934;7.414;2022-09-23T01:58:13;9.90;99.90
35804;DHT22;21924;51.934;7.414;2022-09-23T02:00:59;10.00;99.90
35804;DHT22;21924;51.934;7.414;2022-09-23T02:03:46;9.90;99.90
35804;DHT22;21924;51.934;7.414;2022-09-23T02:06:35;10.00;99.90
35804;DHT22;21924;51.934;7.414;2022-09-23T02:09:22;10.00;99.90
35804;DHT22;21924;51.934;7.414;2022-09-23T02:12:09;10.00;99.90
35804;DHT22;21924;51.934;7.414;2022-09-23T02:14:58;10.10;99.90
35804;DHT22;21924;51.934;7.414;2022-09-23T02:17:48;10.10;99.90
35804;DHT22;21924;51.934;7.414;2022-09-23T02:20:35;10.00;99.90
35804;DHT22;21924;51.934;7.414;2022-09-23T02:23:24;10.00;99.90
35804;DHT22;21924;51.934;7.414;2022-09-23T02:29:06;9.90;99.90
35804;DHT22;21924;51.934;7.414;2022-09-23T02:46:34;9.60;99.90
35804;DHT22;21924;51.934;7.414;2022-09-23T02:49:24;9.60;99.90
35804;DHT22;21924;51.934;7.414;2022-09-23T02:52:09;9.50;99.90
35804;DHT22;21924;51.934;7.414;2022-09-23T02:54:56;9.50;99.90
35804;DHT22;21924;51.934;7.414;2022-09-23T02:57:41;9.50;99.90
35804;DHT22;21924;51.934;7.414;2022-09-23T03:00:27;9.50;99.90
35804;DHT22;21924;51.934;7.414;2022-09-23T03:05:56;9.40;99.90
35804;DHT22;21924;51.934;7.414;2022-09-23T03:11:31;9.40;99.90
35804;DHT22;21924;51.934;7.414;2022-09-23T03:17:13;9.40;99.90
35804;DHT22;21924;51.934;7.414;2022-09-23T03:20:07;9.40;99.90
35804;DHT22;21924;51.934;7.414;2022-09-23T03:22:54;9.40;99.90
35804;DHT22;21924;51.934;7.414;2022-09-23T03:25:40;9.40;99.90
35804;DHT22;21924;51.934;7.414;2022-09-23T03:28:28;9.40;99.90
35804;DHT22;21924;51.934;7.414;2022-09-23T03:31:13;9.40;99.90
35804;DHT22;21924;51.934;7.414;2022-09-23T03:33:58;9.30;99.90
35804;DHT22;21924;51.934;7.414;2022-09-23T03:36:54;9.30;99.90
35804;DHT22;21924;51.934;7.414;2022-09-23T03:39:43;9.30;99.90
35804;DHT22;21924;51.934;7.414;2022-09-23T03:42:30;9.20;99.90
35804;DHT22;21924;51.934;7.414;2022-09-23T03:45:17;9.20;99.90
35804;DHT22;21924;51.934;7.414;2022-09-23T03:48:02;9.10;99.90
35804;DHT22;21924;51.934;7.414;2022-09-23T03:50:47;9.10;99.90
35804;DHT22;21924;51.934;7.414;2022-09-23T03:53:31;9.00;99.90
35804;DHT22;21924;51.934;7.414;2022-09-23T03:56:15;9.00;99.90
35804;DHT22;21924;51.934;7.414;2022-09-23T03:58:59;8.90;99.90
35804;DHT22;21924;51.934;7.414;2022-09-23T04:01:43;8.80;99.90
35804;DHT22;21924;51.934;7.414;2022-09-23T04:04:28;8.70;99.90
35804;DHT22;21924;51.934;7.414;2022-09-23T04:07:16;8.70;99.90
35804;DHT22;21924;51.934;7.414;2022-09-23T04:10:01;8.60;99.90
35804;DHT22;21924;51.934;7.414;2022-09-23T04:12:45;8.60;99.90
35804;DHT22;21924;51.934;7.414;2022-09-23T04:15:29;8.50;99.90
35804;DHT22;21924;51.934;7.414;2022-09-23T04:18:13;8.50;99.90
35804;DHT22;21924;51.934;7.414;2022-09-23T04:20:57;8.40;99.90
35804;DHT22;21924;51.934;7.414;2022-09-23T04:23:42;8.40;99.90
35804;DHT22;21924;51.934;7.414;2022-09-23T04:26:26;8.40;99.90
35804;DHT22;21924;51.934;7.414;2022-09-23T04:29:11;8.30;99.90
35804;DHT22;21924;51.934;7.414;2022-09-23T04:31:55;8.30;99.90
35804;DHT22;21924;51.934;7.414;2022-09-23T04:34:39;8.30;99.90
35804;DHT22;21924;51.934;7.414;2022-09-23T04:37:23;8.30;99.90
35804;DHT22;21924;51.934;7.414;2022-09-23T04:40:07;8.20;99.90
35804;DHT22;21924;51.934;7.414;2022-09-23T04:42:51;8.30;99.90
35804;DHT22;21924;51.934;7.414;2022-09-23T04:45:36;8.20;99.90
35804;DHT22;21924;51.934;7.414;2022-09-23T04:48:20;8.20;99.90
35804;DHT22;21924;51.934;7.414;2022-09-23T04:51:08;8.20;99.90
35804;DHT22;21924;51.934;7.414;2022-09-23T04:53:54;8.10;99.90
35804;DHT22;21924;51.934;7.414;2022-09-23T04:56:38;8.10;99.90
35804;DHT22;21924;51.934;7.414;2022-09-23T04:59:22;8.10;99.90
35804;DHT22;21924;51.934;7.414;2022-09-23T05:02:07;8.10;99.90
35804;DHT22;21924;51.934;7.414;2022-09-23T05:04:51;8.10;99.90
35804;DHT22;21924;51.934;7.414;2022-09-23T05:07:35;8.00;99.90
35804;DHT22;21924;51.934;7.414;2022-09-23T05:10:19;8.10;99.90
35804;DHT22;21924;51.934;7.414;2022-09-23T05:13:03;8.10;99.90
35804;DHT22;21924;51.934;7.414;2022-09-23T05:15:47;8.10;99.90
35804;DHT22;21924;51.934;7.414;2022-09-23T05:18:35;8.10;99.90
35804;DHT22;21924;51.934;7.414;2022-09-23T05:21:20;8.00;99.90
35804;DHT22;21924;51.934;7.414;2022-09-23T05:24:05;8.00;99.90
35804;DHT22;21924;51.934;7.414;2022-09-23T05:26:49;8.00;99.90
35804;DHT22;21924;51.934;7.414;2022-09-23T05:29:34;8.00;99.90
35804;DHT22;21924;51.934;7.414;2022-09-23T05:32:19;8.00;99.90
35804;DHT22;21924;51.934;7.414;2022-09-23T05:35:03;8.00;99.90
35804;DHT22;21924;51.934;7.414;2022-09-23T05:37:48;8.10;99.90
35804;DHT22;21924;51.934;7.414;2022-09-23T05:40:32;8.10;99.90
35804;DHT22;21924;51.934;7.414;2022-09-23T05:43:16;8.10;99.90
35804;DHT22;21924;51.934;7.414;2022-09-23T05:46:04;8.20;99.90
35804;DHT22;21924;51.934;7.414;2022-09-23T05:48:48;8.20;99.90
35804;DHT22;21924;51.934;7.414;2022-09-23T05:51:33;8.20;99.90
35804;DHT22;21924;51.934;7.414;2022-09-23T05:54:18;8.20;99.90
35804;DHT22;21924;51.934;7.414;2022-09-23T05:57:02;8.20;99.90
35804;DHT22;21924;51.934;7.414;2022-09-23T05:59:46;8.30;99.90
35804;DHT22;21924;51.934;7.414;2022-09-23T06:02:30;8.30;99.90
35804;DHT22;21924;51.934;7.414;2022-09-23T06:05:14;8.40;99.90
35804;DHT22;21924;51.934;7.414;2022-09-23T06:07:59;8.40;99.90
35804;DHT22;21924;51.934;7.414;2022-09-23T06:10:43;8.50;99.90
35804;DHT22;21924;51.934;7.414;2022-09-23T06:13:28;8.60;99.90
35804;DHT22;21924;51.934;7.414;2022-09-23T06:16:13;8.60;99.90
35804;DHT22;21924;51.934;7.414;2022-09-23T06:18:57;8.70;99.90
35804;DHT22;21924;51.934;7.414;2022-09-23T06:21:43;8.70;99.90
35804;DHT22;21924;51.934;7.414;2022-09-23T06:24:27;8.70;99.90
35804;DHT22;21924;51.934;7.414;2022-09-23T06:27:11;8.80;99.90
35804;DHT22;21924;51.934;7.414;2022-09-23T06:29:55;8.90;99.90
35804;DHT22;21924;51.934;7.414;2022-09-23T06:32:40;8.90;99.90
35804;DHT22;21924;51.934;7.414;2022-09-23T06:35:25;8.90;99.90
35804;DHT22;21924;51.934;7.414;2022-09-23T06:38:09;9.00;99.90
35804;DHT22;21924;51.934;7.414;2022-09-23T06:40:55;9.10;99.90
35804;DHT22;21924;51.934;7.414;2022-09-23T06:43:40;9.20;99.90
35804;DHT22;21924;51.934;7.414;2022-09-23T06:46:24;9.30;99.90
35804;DHT22;21924;51.934;7.414;2022-09-23T06:49:08;9.40;99.90
35804;DHT22;21924;51.934;7.414;2022-09-23T06:51:53;9.50;99.90
35804;DHT22;21924;51.934;7.414;2022-09-23T06:54:38;9.70;99.90
35804;DHT22;21924;51.934;7.414;2022-09-23T06:57:22;9.80;99.90
35804;DHT22;21924;51.934;7.414;2022-09-23T07:00:07;9.90;99.90
35804;DHT22;21924;51.934;7.414;2022-09-23T07:02:51;10.10;99.90
35804;DHT22;21924;51.934;7.414;2022-09-23T07:05:37;10.10;99.90
35804;DHT22;21924;51.934;7.414;2022-09-23T07:08:21;10.20;99.90
35804;DHT22;21924;51.934;7.414;2022-09-23T07:11:06;10.30;99.90
35804;DHT22;21924;51.934;7.414;2022-09-23T07:13:55;10.40;99.90
35804;DHT22;21924;51.934;7.414;2022-09-23T07:16:40;10.40;99.90
35804;DHT22;21924;51.934;7.414;2022-09-23T07:19:24;10.50;99.90
35804;DHT22;21924;51.934;7.414;2022-09-23T07:22:09;10.70;99.90
35804;DHT22;21924;51.934;7.414;2022-09-23T07:24:53;10.80;99.90
35804;DHT22;21924;51.934;7.414;2022-09-23T07:27:40;10.80;99.90
35804;DHT22;21924;51.934;7.414;2022-09-23T07:30:24;11.00;99.90
35804;DHT22;21924;51.934;7.414;2022-09-23T07:33:08;11.10;99.90
35804;DHT22;21924;51.934;7.414;2022-09-23T07:35:52;11.20;99.90
35804;DHT22;21924;51.934;7.414;2022-09-23T07:38:37;11.30;99.90
35804;DHT22;21924;51.934;7.414;2022-09-23T07:41:21;11.40;99.90
35804;DHT22;21924;51.934;7.414;2022-09-23T07:44:05;11.50;99.90
35804;DHT22;21924;51.934;7.414;2022-09-23T07:46:49;11.70;99.90
35804;DHT22;21924;51.934;7.414;2022-09-23T07:49:33;11.90;99.90
35804;DHT22;21924;51.934;7.414;2022-09-23T07:52:18;12.00;99.90
35804;DHT22;21924;51.934;7.414;2022-09-23T07:55:03;12.10;99.90
35804;DHT22;21924;51.934;7.414;2022-09-23T07:57:47;12.20;99.90
35804;DHT22;21924;51.934;7.414;2022-09-23T08:00:32;12.30;99.90
35804;DHT22;21924;51.934;7.414;2022-09-23T08:03:16;12.30;99.90
35804;DHT22;21924;51.934;7.414;2022-09-23T08:08:48;12.50;99.90
35804;DHT22;21924;51.934;7.414;2022-09-23T08:11:34;12.50;99.90
35804;DHT22;21924;51.934;7.414;2022-09-23T08:14:19;12.50;99.90
35804;DHT22;21924;51.934;7.414;2022-09-23T08:17:05;12.60;99.90
35804;DHT22;21924;51.934;7.414;2022-09-23T08:19:49;12.70;99.90
35804;DHT22;21924;51.934;7.414;2022-09-23T08:22:33;12.70;99.90
35804;DHT22;21924;51.934;7.414;2022-09-23T08:25:17;12.80;99.90
35804;DHT22;21924;51.934;7.414;2022-09-23T08:28:02;12.90;99.90
35804;DHT22;21924;51.934;7.414;2022-09-23T08:30:49;13.10;99.90
35804;DHT22;21924;51.934;7.414;2022-09-23T08:33:33;13.20;99.90
35804;DHT22;21924;51.934;7.414;2022-09-23T08:36:17;13.40;99.90
35804;DHT22;21924;51.934;7.414;2022-09-23T08:39:01;13.40;99.90
35804;DHT22;21924;51.934;7.414;2022-09-23T08:44:37;13.70;99.90
35804;DHT22;21924;51.934;7.414;2022-09-23T08:52:59;14.00;99.90
35804;DHT22;21924;51.934;7.414;2022-09-23T08:55:46;14.10;99.90
35804;DHT22;21924;51.934;7.414;2022-09-23T09:01:51;14.20;99.90
35804;DHT22;21924;51.934;7.414;2022-09-23T09:07:23;14.30;99.90
35804;DHT22;21924;51.934;7.414;2022-09-23T09:10:16;14.50;99.90
35804;DHT22;21924;51.934;7.414;2022-09-23T09:13:05;14.50;99.90
35804;DHT22;21924;51.934;7.414;2022-09-23T09:15:58;14.50;99.90
35804;DHT22;21924;51.934;7.414;2022-09-23T09:18:52;14.70;99.90
35804;DHT22;21924;51.934;7.414;2022-09-23T09:21:38;14.70;99.90
35804;DHT22;21924;51.934;7.414;2022-09-23T09:24:33;14.80;99.90
35804;DHT22;21924;51.934;7.414;2022-09-23T09:27:17;14.90;99.90
35804;DHT22;21924;51.934;7.414;2022-09-23T09:30:02;14.90;99.90
35804;DHT22;21924;51.934;7.414;2022-09-23T09:38:19;15.20;99.90
35804;DHT22;21924;51.934;7.414;2022-09-23T09:41:10;15.30;99.90
35804;DHT22;21924;51.934;7.414;2022-09-23T09:43:55;15.40;99.90
35804;DHT22;21924;51.934;7.414;2022-09-23T09:52:20;15.80;99.90
35804;DHT22;21924;51.934;7.414;2022-09-23T09:57:57;15.90;99.90
35804;DHT22;21924;51.934;7.414;2022-09-23T10:00:48;16.00;99.90
35804;DHT22;21924;51.934;7.414;2022-09-23T10:03:36;16.00;99.90
35804;DHT22;21924;51.934;7.414;2022-09-23T10:06:31;15.90;99.90
35804;DHT22;21924;51.934;7.414;2022-09-23T10:09:16;16.10;99.90
35804;DHT22;21924;51.934;7.414;2022-09-23T10:14:50;16.20;99.90
35804;DHT22;21924;51.934;7.414;2022-09-23T10:17:35;16.30;99.90
35804;DHT22;21924;51.934;7.414;2022-09-23T10:20:21;16.50;99.90
35804;DHT22;21924;51.934;7.414;2022-09-23T10:23:06;16.60;99.90
35804;DHT22;21924;51.934;7.414;2022-09-23T10:25:58;16.70;99.90
35804;DHT22;21924;51.934;7.414;2022-09-23T10:28:45;16.60;99.90
35804;DHT22;21924;51.934;7.414;2022-09-23T10:31:31;16.70;99.90
35804;DHT22;21924;51.934;7.414;2022-09-23T10:34:21;16.70;99.90
35804;DHT22;21924;51.934;7.414;2022-09-23T10:37:10;16.80;99.90
35804;DHT22;21924;51.934;7.414;2022-09-23T10:39:57;16.80;99.90
35804;DHT22;21924;51.934;7.414;2022-09-23T10:46:29;16.80;99.90
35804;DHT22;21924;51.934;7.414;2022-09-23T10:49:39;16.90;99.90
35804;DHT22;21924;51.934;7.414;2022-09-23T11:04:11;17.20;99.90
35804;DHT22;21924;51.934;7.414;2022-09-23T11:10:24;17.40;99.90
35804;DHT22;21924;51.934;7.414;2022-09-23T11:13:28;17.40;99.90
35804;DHT22;21924;51.934;7.414;2022-09-23T11:16:34;17.40;99.90
35804;DHT22;21924;51.934;7.414;2022-09-23T11:19:45;17.60;99.90
35804;DHT22;21924;51.934;7.414;2022-09-23T11:37:34;18.10;99.90
35804;DHT22;21924;51.934;7.414;2022-09-23T11:40:20;18.30;99.90
35804;DHT22;21924;51.934;7.414;2022-09-23T11:43:12;18.40;99.90
35804;DHT22;21924;51.934;7.414;2022-09-23T11:46:02;18.50;99.90
35804;DHT22;21924;51.934;7.414;2022-09-23T11:51:53;18.70;99.90
35804;DHT22;21924;51.934;7.414;2022-09-23T11:55:01;18.80;99.90
35804;DHT22;21924;51.934;7.414;2022-09-23T11:57:50;18.70;99.90
35804;DHT22;21924;51.934;7.414;2022-09-23T12:00:40;18.60;99.90
35804;DHT22;21924;51.934;7.414;2022-09-23T12:03:33;18.70;99.90
35804;DHT22;21924;51.934;7.414;2022-09-23T12:06:20;18.70;99.90
35804;DHT22;21924;51.934;7.414;2022-09-23T12:09:13;18.70;99.90
35804;DHT22;21924;51.934;7.414;2022-09-23T12:11:59;18.80;99.90
35804;DHT22;21924;51.934;7.414;2022-09-23T12:20:31;18.60;99.90
35804;DHT22;21924;51.934;7.414;2022-09-23T12:26:01;18.60;99.90
35804;DHT22;21924;51.934;7.414;2022-09-23T12:28:48;18.50;99.90
35804;DHT22;21924;51.934;7.414;2022-09-23T12:31:35;18.60;99.90
35804;DHT22;21924;51.934;7.414;2022-09-23T12:34:27;18.50;99.90
35804;DHT22;21924;51.934;7.414;2022-09-23T12:37:11;18.50;99.90
35804;DHT22;21924;51.934;7.414;2022-09-23T12:43:17;18.60;99.90
35804;DHT22;21924;51.934;7.414;2022-09-23T12:46:15;18.60;99.90
35804;DHT22;21924;51.934;7.414;2022-09-23T12:49:00;18.70;99.90
35804;DHT22;21924;51.934;7.414;2022-09-23T12:52:32;18.80;99.90
35804;DHT22;21924;51.934;7.414;2022-09-23T12:54:50;18.70;99.90
35804;DHT22;21924;51.934;7.414;2022-09-23T12:57:39;18.70;99.90
35804;DHT22;21924;51.934;7.414;2022-09-23T13:00:23;18.70;99.90
35804;DHT22;21924;51.934;7.414;2022-09-23T13:03:09;18.70;99.90
35804;DHT22;21924;51.934;7.414;2022-09-23T13:06:14;18.80;99.90
35804;DHT22;21924;51.934;7.414;2022-09-23T13:09:21;18.90;99.90
35804;DHT22;21924;51.934;7.414;2022-09-23T13:12:13;18.90;99.90
35804;DHT22;21924;51.934;7.414;2022-09-23T13:15:01;18.90;99.90
35804;DHT22;21924;51.934;7.414;2022-09-23T13:17:48;19.00;99.90
35804;DHT22;21924;51.934;7.414;2022-09-23T13:20:35;18.90;99.90
35804;DHT22;21924;51.934;7.414;2022-09-23T13:23:24;19.00;99.90
35804;DHT22;21924;51.934;7.414;2022-09-23T13:26:09;18.90;99.90
35804;DHT22;21924;51.934;7.414;2022-09-23T13:28:55;19.00;99.90
35804;DHT22;21924;51.934;7.414;2022-09-23T13:31:41;19.00;99.90
35804;DHT22;21924;51.934;7.414;2022-09-23T13:34:32;19.00;99.90
35804;DHT22;21924;51.934;7.414;2022-09-23T13:37:31;18.90;99.90
35804;DHT22;21924;51.934;7.414;2022-09-23T13:40:22;18.90;99.90
35804;DHT22;21924;51.934;7.414;2022-09-23T13:43:10;18.90;99.90
35804;DHT22;21924;51.934;7.414;2022-09-23T13:45:57;18.90;99.90
35804;DHT22;21924;51.934;7.414;2022-09-23T13:48:42;19.00;99.90
35804;DHT22;21924;51.934;7.414;2022-09-23T13:51:32;18.80;99.90
35804;DHT22;21924;51.934;7.414;2022-09-23T13:54:33;18.70;99.90
35804;DHT22;21924;51.934;7.414;2022-09-23T13:57:24;18.60;99.90
35804;DHT22;21924;51.934;7.414;2022-09-23T14:00:16;18.60;99.90
35804;DHT22;21924;51.934;7.414;2022-09-23T14:03:01;18.50;99.90
35804;DHT22;21924;51.934;7.414;2022-09-23T14:05:45;18.40;99.90
35804;DHT22;21924;51.934;7.414;2022-09-23T14:08:30;18.40;99.90
35804;DHT22;21924;51.934;7.414;2022-09-23T14:11:15;18.20;99.90
35804;DHT22;21924;51.934;7.414;2022-09-23T14:14:00;18.30;99.90
35804;DHT22;21924;51.934;7.414;2022-09-23T14:16:50;18.30;99.90
35804;DHT22;21924;51.934;7.414;2022-09-23T14:19:35;18.40;99.90
35804;DHT22;21924;51.934;7.414;2022-09-23T14:22:26;18.30;99.90
35804;DHT22;21924;51.934;7.414;2022-09-23T14:25:11;18.30;99.90
35804;DHT22;21924;51.934;7.414;2022-09-23T14:27:57;18.20;99.90
35804;DHT22;21924;51.934;7.414;2022-09-23T14:30:41;18.10;99.90
35804;DHT22;21924;51.934;7.414;2022-09-23T14:33:32;18.00;99.90
35804;DHT22;21924;51.934;7.414;2022-09-23T14:36:16;18.00;99.90
35804;DHT22;21924;51.934;7.414;2022-09-23T14:39:20;18.00;99.90
35804;DHT22;21924;51.934;7.414;2022-09-23T14:42:05;18.00;99.90
35804;DHT22;21924;51.934;7.414;2022-09-23T14:44:50;18.00;99.90
35804;DHT22;21924;51.934;7.414;2022-09-23T14:47:34;18.10;99.90
35804;DHT22;21924;51.934;7.414;2022-09-23T14:50:22;18.30;99.90
35804;DHT22;21924;51.934;7.414;2022-09-23T14:53:39;18.30;99.90
35804;DHT22;21924;51.934;7.414;2022-09-23T14:56:24;18.40;99.90
35804;DHT22;21924;51.934;7.414;2022-09-23T14:59:18;18.30;99.90
35804;DHT22;21924;51.934;7.414;2022-09-23T15:07:54;18.20;99.90
35804;DHT22;21924;51.934;7.414;2022-09-23T15:10:39;18.20;99.90
35804;DHT22;21924;51.934;7.414;2022-09-23T15:13:26;18.20;99.90
35804;DHT22;21924;51.934;7.414;2022-09-23T15:16:12;18.10;99.90
35804;DHT22;21924;51.934;7.414;2022-09-23T15:18:58;18.20;99.90
35804;DHT22;21924;51.934;7.414;2022-09-23T15:21:43;18.10;99.90
35804;DHT22;21924;51.934;7.414;2022-09-23T15:24:33;18.10;99.90
35804;DHT22;21924;51.934;7.414;2022-09-23T15:27:33;18.00;99.90
35804;DHT22;21924;51.934;7.414;2022-09-23T15:30:18;17.90;99.90
35804;DHT22;21924;51.934;7.414;2022-09-23T15:33:02;17.90;99.90
35804;DHT22;21924;51.934;7.414;2022-09-23T15:35:47;17.80;99.90
35804;DHT22;21924;51.934;7.414;2022-09-23T15:38:31;17.70;99.90
35804;DHT22;21924;51.934;7.414;2022-09-23T15:41:15;17.60;99.90
35804;DHT22;21924;51.934;7.414;2022-09-23T15:46:56;17.60;99.90
35804;DHT22;21924;51.934;7.414;2022-09-23T15:49:43;17.50;99.90
35804;DHT22;21924;51.934;7.414;2022-09-23T15:52:28;17.40;99.90
35804;DHT22;21924;51.934;7.414;2022-09-23T15:55:16;17.30;99.90
35804;DHT22;21924;51.934;7.414;2022-09-23T15:58:01;17.30;99.90
35804;DHT22;21924;51.934;7.414;2022-09-23T16:00:46;17.20;99.90
35804;DHT22;21924;51.934;7.414;2022-09-23T16:03:30;17.10;99.90
35804;DHT22;21924;51.934;7.414;2022-09-23T16:06:15;17.00;99.90
35804;DHT22;21924;51.934;7.414;2022-09-23T16:08:59;16.90;99.90
35804;DHT22;21924;51.934;7.414;2022-09-23T16:11:44;16.80;99.90
35804;DHT22;21924;51.934;7.414;2022-09-23T16:14:29;16.80;99.90
35804;DHT22;21924;51.934;7.414;2022-09-23T16:17:13;16.70;99.90
35804;DHT22;21924;51.934;7.414;2022-09-23T16:19:57;16.70;99.90
35804;DHT22;21924;51.934;7.414;2022-09-23T16:22:41;16.60;99.90
35804;DHT22;21924;51.934;7.414;2022-09-23T16:25:26;16.50;99.90
35804;DHT22;21924;51.934;7.414;2022-09-23T16:28:10;16.50;99.90
35804;DHT22;21924;51.934;7.414;2022-09-23T16:30:54;16.50;99.90
35804;DHT22;21924;51.934;7.414;2022-09-23T16:33:38;16.50;99.90
35804;DHT22;21924;51.934;7.414;2022-09-23T16:39:07;16.40;99.90
35804;DHT22;21924;51.934;7.414;2022-09-23T16:41:53;16.30;99.90
35804;DHT22;21924;51.934;7.414;2022-09-23T16:44:37;16.20;99.90
35804;DHT22;21924;51.934;7.414;2022-09-23T16:47:24;16.20;99.90
35804;DHT22;21924;51.934;7.414;2022-09-23T16:50:08;16.10;99.90
35804;DHT22;21924;51.934;7.414;2022-09-23T16:52:52;16.10;99.90
35804;DHT22;21924;51.934;7.414;2022-09-23T16:55:39;16.00;99.90
35804;DHT22;21924;51.934;7.414;2022-09-23T16:58:23;15.90;99.90
35804;DHT22;21924;51.934;7.414;2022-09-23T17:01:12;15.80;99.90
35804;DHT22;21924;51.934;7.414;2022-09-23T17:04:16;15.80;99.90
35804;DHT22;21924;51.934;7.414;2022-09-23T17:07:01;15.80;99.90
35804;DHT22;21924;51.934;7.414;2022-09-23T17:09:45;15.70;99.90
35804;DHT22;21924;51.934;7.414;2022-09-23T17:12:30;15.70;99.90
35804;DHT22;21924;51.934;7.414;2022-09-23T17:15:15;15.60;99.90
35804;DHT22;21924;51.934;7.414;2022-09-23T17:17:59;15.60;99.90
35804;DHT22;21924;51.934;7.414;2022-09-23T17:20:43;15.60;99.90
35804;DHT22;21924;51.934;7.414;2022-09-23T17:23:27;15.50;99.90
35804;DHT22;21924;51.934;7.414;2022-09-23T17:26:11;15.50;99.90
35804;DHT22;21924;51.934;7.414;2022-09-23T17:28:56;15.40;99.90
35804;DHT22;21924;51.934;7.414;2022-09-23T17:31:42;15.40;99.90
35804;DHT22;21924;51.934;7.414;2022-09-23T17:34:26;15.30;99.90
35804;DHT22;21924;51.934;7.414;2022-09-23T17:37:11;15.30;99.90
35804;DHT22;21924;51.934;7.414;2022-09-23T17:39:55;15.20;99.90
35804;DHT22;21924;51.934;7.414;2022-09-23T17:42:40;15.20;99.90
35804;DHT22;21924;51.934;7.414;2022-09-23T17:45:24;15.10;99.90
35804;DHT22;21924;51.934;7.414;2022-09-23T17:48:08;15.20;99.90
35804;DHT22;21924;51.934;7.414;2022-09-23T17:50:53;15.10;99.90
35804;DHT22;21924;51.934;7.414;2022-09-23T17:53:38;15.00;99.90
35804;DHT22;21924;51.934;7.414;2022-09-23T17:56:23;15.00;99.90
35804;DHT22;21924;51.934;7.414;2022-09-23T17:59:09;15.00;99.90
35804;DHT22;21924;51.934;7.414;2022-09-23T18:01:54;15.00;99.90
35804;DHT22;21924;51.934;7.414;2022-09-23T18:04:38;14.90;99.90
35804;DHT22;21924;51.934;7.414;2022-09-23T18:07:22;14.90;99.90
35804;DHT22;21924;51.934;7.414;2022-09-23T18:10:06;14.90;99.90
35804;DHT22;21924;51.934;7.414;2022-09-23T18:12:50;14.90;99.90
35804;DHT22;21924;51.934;7.414;2022-09-23T18:15:35;14.80;99.90
35804;DHT22;21924;51.934;7.414;2022-09-23T18:18:20;14.80;99.90
35804;DHT22;21924;51.934;7.414;2022-09-23T18:21:04;14.80;99.90
35804;DHT22;21924;51.934;7.414;2022-09-23T18:23:48;14.70;99.90
35804;DHT22;21924;51.934;7.414;2022-09-23T18:26:33;14.70;99.90
35804;DHT22;21924;51.934;7.414;2022-09-23T18:29:17;14.70;99.90
35804;DHT22;21924;51.934;7.414;2022-09-23T18:32:02;14.70;99.90
35804;DHT22;21924;51.934;7.414;2022-09-23T18:34:46;14.70;99.90
35804;DHT22;21924;51.934;7.414;2022-09-23T18:37:30;14.70;99.90
35804;DHT22;21924;51.934;7.414;2022-09-23T18:40:14;14.70;99.90
35804;DHT22;21924;51.934;7.414;2022-09-23T18:42:59;14.60;99.90
35804;DHT22;21924;51.934;7.414;2022-09-23T18:45:43;14.60;99.90
35804;DHT22;21924;51.934;7.414;2022-09-23T18:48:36;14.60;99.90
35804;DHT22;21924;51.934;7.414;2022-09-23T18:51:49;14.60;99.90
35804;DHT22;21924;51.934;7.414;2022-09-23T18:54:34;14.60;99.90
35804;DHT22;21924;51.934;7.414;2022-09-23T18:57:18;14.70;99.90
35804;DHT22;21924;51.934;7.414;2022-09-23T19:00:02;14.60;99.90
35804;DHT22;21924;51.934;7.414;2022-09-23T19:02:47;14.60;99.90
35804;DHT22;21924;51.934;7.414;2022-09-23T19:05:31;14.50;99.90
35804;DHT22;21924;51.934;7.414;2022-09-23T19:08:15;14.50;99.90
35804;DHT22;21924;51.934;7.414;2022-09-23T19:11:02;14.50;99.90
35804;DHT22;21924;51.934;7.414;2022-09-23T19:13:51;14.40;99.90
35804;DHT22;21924;51.934;7.414;2022-09-23T19:16:37;14.40;99.90
35804;DHT22;21924;51.934;7.414;2022-09-23T19:19:22;14.30;99.90
35804;DHT22;21924;51.934;7.414;2022-09-23T19:22:06;14.30;99.90
35804;DHT22;21924;51.934;7.414;2022-09-23T19:24:50;14.30;99.90
35804;DHT22;21924;51.934;7.414;2022-09-23T19:27:34;14.30;99.90
35804;DHT22;21924;51.934;7.414;2022-09-23T19:30:18;14.30;99.90
35804;DHT22;21924;51.934;7.414;2022-09-23T19:33:03;14.30;99.90
35804;DHT22;21924;51.934;7.414;2022-09-23T19:35:49;14.30;99.90
35804;DHT22;21924;51.934;7.414;2022-09-23T19:38:34;14.20;99.90
35804;DHT22;21924;51.934;7.414;2022-09-23T19:41:18;14.20;99.90
35804;DHT22;21924;51.934;7.414;2022-09-23T19:44:03;14.20;99.90
35804;DHT22;21924;51.934;7.414;2022-09-23T19:46:50;14.20;99.90
35804;DHT22;21924;51.934;7.414;2022-09-23T19:49:34;14.10;99.90
35804;DHT22;21924;51.934;7.414;2022-09-23T19:52:19;14.10;99.90
35804;DHT22;21924;51.934;7.414;2022-09-23T19:55:03;14.10;99.90
35804;DHT22;21924;51.934;7.414;2022-09-23T19:57:48;14.10;99.90
35804;DHT22;21924;51.934;7.414;2022-09-23T20:00:33;14.10;99.90
35804;DHT22;21924;51.934;7.414;2022-09-23T20:03:18;14.20;99.90